Time;durP1;ratioP1;P1;durP2;ratioP2;P2;SDS_P1;SDS_P2;PMS_P1;PMS_P2;Temp;Humidity;BMP_temperature;BMP_pressure;BME280_temperature;BME280_humidity;BME280_pressure;Samples;Min_cycle;Max_cycle;Signal;HPM_P1;HPM_P2
2021/04/30 05:20:56;;;;;;;14.15;9.77;;;6.70;74.70;;;;;;5073129;28;20935;-77
2021/04/30 05:23:23;;;;;;;12.90;8.85;;;6.50;74.70;;;;;;5071375;28;20051;-79
2021/04/30 05:25:52;;;;;;;15.43;10.93;;;6.70;73.50;;;;;;5065727;28;20036;-79
2021/04/30 05:28:18;;;;;;;17.00;10.75;;;7.10;71.90;;;;;;5069103;28;20056;-78
2021/04/30 05:30:43;;;;;;;14.00;9.70;;;7.40;69.20;;;;;;5070466;28;20028;-79
2021/04/30 05:33:09;;;;;;;12.82;10.13;;;7.60;68.80;;;;;;5061516;28;20490;-79
2021/04/30 05:35:35;;;;;;;16.85;9.68;;;7.90;67.20;;;;;;5059714;28;20025;-78
2021/04/30 05:38:01;;;;;;;16.42;11.13;;;8.10;66.30;;;;;;5069863;28;20036;-79
2021/04/30 05:40:27;;;;;;;14.43;9.43;;;8.30;65.50;;;;;;5066196;28;20029;-79
2021/04/30 05:42:52;;;;;;;14.77;8.95;;;8.40;65.60;;;;;;5065189;28;20028;-81
2021/04/30 05:45:18;;;;;;;13.63;9.05;;;8.50;65.30;;;;;;5077585;28;20028;-77
2021/04/30 05:47:44;;;;;;;13.45;9.23;;;8.70;64.00;;;;;;5064729;28;20494;-78
2021/04/30 05:50:11;;;;;;;14.32;9.65;;;8.70;64.80;;;;;;5066928;28;20399;-81
2021/04/30 05:52:36;;;;;;;14.15;8.60;;;8.80;64.00;;;;;;5069307;28;20055;-78
2021/04/30 05:55:04;;;;;;;14.90;10.13;;;8.90;64.00;;;;;;5070758;28;20025;-80
2021/04/30 05:57:30;;;;;;;14.13;9.45;;;9.00;64.30;;;;;;5061732;28;20018;-80
2021/04/30 05:59:56;;;;;;;16.35;9.65;;;9.10;63.30;;;;;;5064934;28;20094;-80
2021/04/30 06:02:22;;;;;;;14.85;9.50;;;9.10;63.30;;;;;;5069274;28;20025;-77
2021/04/30 06:04:47;;;;;;;13.35;9.20;;;9.20;62.90;;;;;;5069535;28;20032;-85
2021/04/30 06:07:13;;;;;;;15.15;9.38;;;9.30;63.20;;;;;;5071378;28;20058;-80
2021/04/30 06:09:39;;;;;;;14.85;9.52;;;9.40;63.00;;;;;;5071898;28;20036;-91
2021/04/30 06:12:05;;;;;;;12.77;9.52;;;9.50;62.50;;;;;;5062990;28;20036;-93
2021/04/30 06:14:32;;;;;;;15.57;9.35;;;9.60;61.70;;;;;;5061300;28;20017;-90
2021/04/30 06:16:58;;;;;;;14.32;9.13;;;9.70;61.80;;;;;;5071165;28;20021;-88
2021/04/30 06:19:24;;;;;;;11.82;8.20;;;9.80;61.20;;;;;;5059846;28;20594;-92
2021/04/30 06:21:50;;;;;;;16.40;9.77;;;9.90;60.80;;;;;;5072014;28;20095;-92
2021/04/30 06:24:16;;;;;;;13.15;8.80;;;9.80;60.70;;;;;;5070983;28;20032;-85
2021/04/30 06:26:41;;;;;;;11.75;8.45;;;9.90;61.00;;;;;;5069812;28;20028;-84
2021/04/30 06:29:10;;;;;;;13.02;9.40;;;9.90;61.50;;;;;;5059293;28;20041;-83
2021/04/30 06:31:36;;;;;;;13.73;8.85;;;9.90;60.60;;;;;;5047358;28;20027;-86
2021/04/30 06:34:03;;;;;;;11.45;8.55;;;9.90;60.00;;;;;;5049996;28;20036;-87
2021/04/30 06:36:29;;;;;;;14.63;9.25;;;10.00;60.70;;;;;;5051556;28;20028;-87
2021/04/30 06:38:54;;;;;;;12.73;8.52;;;10.00;59.50;;;;;;5050037;28;20100;-87
2021/04/30 06:41:20;;;;;;;11.50;7.63;;;10.10;59.50;;;;;;5054260;28;20032;-86
2021/04/30 06:43:46;;;;;;;13.07;7.90;;;10.20;58.20;;;;;;5048463;28;20033;-86
2021/04/30 06:46:11;;;;;;;12.38;7.95;;;10.40;58.20;;;;;;5052574;28;20491;-87
2021/04/30 06:48:37;;;;;;;11.48;7.95;;;10.60;56.90;;;;;;5053673;28;20025;-86
2021/04/30 06:51:03;;;;;;;10.27;7.45;;;10.60;56.30;;;;;;5053625;28;20175;-87
2021/04/30 06:53:29;;;;;;;15.55;9.50;;;10.60;55.90;;;;;;5055091;28;20040;-87
2021/04/30 06:55:54;;;;;;;37.30;21.25;;;10.70;56.30;;;;;;5055944;28;20088;-87
2021/04/30 06:58:20;;;;;;;24.02;14.35;;;10.70;56.30;;;;;;5053846;28;20029;-86
2021/04/30 07:00:45;;;;;;;12.20;8.35;;;10.70;56.30;;;;;;5049417;28;20095;-87
2021/04/30 07:03:11;;;;;;;11.95;8.98;;;10.70;55.70;;;;;;5049387;28;20106;-86
2021/04/30 07:05:37;;;;;;;11.32;8.60;;;10.70;55.60;;;;;;5050492;28;20102;-87
2021/04/30 07:08:03;;;;;;;11.85;7.20;;;10.80;55.00;;;;;;5056494;28;20094;-86
2021/04/30 07:10:30;;;;;;;9.55;7.50;;;11.00;54.70;;;;;;5051888;28;20028;-86
2021/04/30 07:12:56;;;;;;;14.15;8.43;;;11.10;54.30;;;;;;5054527;28;20035;-87
2021/04/30 07:15:22;;;;;;;14.32;8.20;;;11.60;52.80;;;;;;5054151;28;20029;-83
2021/04/30 07:17:47;;;;;;;8.75;6.68;;;13.10;50.20;;;;;;5054070;28;20059;-84
2021/04/30 07:20:13;;;;;;;10.88;7.50;;;15.20;45.40;;;;;;5042090;28;20042;-88
2021/04/30 07:22:39;;;;;;;9.48;8.32;;;16.10;42.80;;;;;;5050471;28;20060;-83
2021/04/30 07:25:06;;;;;;;12.18;9.32;;;16.10;42.40;;;;;;5055714;28;20035;-84
2021/04/30 07:27:32;;;;;;;10.43;8.93;;;15.70;43.10;;;;;;5049997;28;20372;-83
2021/04/30 07:29:57;;;;;;;12.45;9.68;;;15.40;43.50;;;;;;5053707;28;20044;-85
2021/04/30 07:32:23;;;;;;;9.45;8.35;;;15.60;43.60;;;;;;5050325;28;20025;-85
2021/04/30 07:34:50;;;;;;;12.63;8.98;;;15.50;43.60;;;;;;5049585;28;20052;-84
2021/04/30 07:37:15;;;;;;;10.15;8.02;;;15.50;43.80;;;;;;5048172;28;20031;-85
2021/04/30 07:39:41;;;;;;;12.70;10.00;;;17.10;41.40;;;;;;5053922;28;20122;-85
2021/04/30 07:42:07;;;;;;;9.00;7.35;;;19.00;39.10;;;;;;5050248;28;20063;-84
2021/04/30 07:44:33;;;;;;;11.07;8.18;;;19.40;37.00;;;;;;5050350;28;20339;-85
2021/04/30 07:46:59;;;;;;;10.73;9.63;;;20.90;35.90;;;;;;5053844;28;20108;-85
2021/04/30 07:49:25;;;;;;;10.80;6.72;;;22.50;33.80;;;;;;5053894;28;20033;-86
2021/04/30 07:51:51;;;;;;;8.45;7.50;;;23.70;32.10;;;;;;5056567;28;20064;-86
2021/04/30 07:54:17;;;;;;;9.23;7.85;;;24.30;30.20;;;;;;5057209;28;20029;-86
2021/04/30 07:56:44;;;;;;;10.05;9.00;;;24.90;29.50;;;;;;5054031;28;20040;-88
2021/04/30 07:59:10;;;;;;;7.22;6.28;;;25.50;29.90;;;;;;5077121;28;20483;-85
2021/04/30 08:01:36;;;;;;;8.13;5.95;;;26.30;29.50;;;;;;5050532;28;20028;-85
2021/04/30 08:04:02;;;;;;;9.55;8.43;;;26.80;28.80;;;;;;5049453;28;20028;-86
2021/04/30 08:06:27;;;;;;;11.70;9.52;;;27.30;28.70;;;;;;5054893;28;20061;-86
2021/04/30 08:08:53;;;;;;;16.10;14.40;;;27.80;28.40;;;;;;5053462;28;20035;-85
2021/04/30 08:11:19;;;;;;;7.55;6.75;;;28.30;27.80;;;;;;5051716;28;20066;-86
2021/04/30 08:13:45;;;;;;;9.65;8.27;;;28.70;27.30;;;;;;5050512;28;20025;-86
2021/04/30 08:16:13;;;;;;;6.45;5.60;;;28.90;26.90;;;;;;5054180;28;20028;-86
2021/04/30 08:18:39;;;;;;;5.70;5.10;;;28.90;26.30;;;;;;5053959;28;20844;-85
2021/04/30 08:21:05;;;;;;;8.18;4.95;;;29.00;26.20;;;;;;5054767;28;20056;-86
2021/04/30 08:23:32;;;;;;;6.88;5.53;;;29.30;26.70;;;;;;5052569;28;20028;-86
2021/04/30 08:25:57;;;;;;;6.15;5.30;;;29.40;26.70;;;;;;5053573;28;20868;-92
2021/04/30 08:28:23;;;;;;;5.65;4.78;;;29.70;26.70;;;;;;5053118;28;20029;-87
2021/04/30 08:30:49;;;;;;;5.80;4.40;;;30.30;26.20;;;;;;5048207;28;20029;-87
2021/04/30 08:33:15;;;;;;;4.88;4.38;;;30.60;25.30;;;;;;5049261;28;20514;-85
2021/04/30 08:35:40;;;;;;;6.18;4.00;;;30.90;25.30;;;;;;5051752;28;20027;-85
2021/04/30 08:38:06;;;;;;;5.10;4.05;;;31.30;24.80;;;;;;5053466;28;20131;-85
2021/04/30 08:40:32;;;;;;;5.93;4.10;;;31.30;24.90;;;;;;5019213;28;20044;-87
2021/04/30 08:42:58;;;;;;;4.65;3.85;;;31.40;25.60;;;;;;5043331;28;20036;-86
2021/04/30 08:45:25;;;;;;;4.63;3.85;;;31.60;25.10;;;;;;5041539;28;20450;-85
2021/04/30 08:47:51;;;;;;;5.18;3.75;;;31.50;25.00;;;;;;5050870;28;20039;-86
2021/04/30 08:50:17;;;;;;;5.78;3.78;;;31.60;24.90;;;;;;5046935;28;20479;-86
2021/04/30 08:52:43;;;;;;;3.97;3.58;;;31.30;25.00;;;;;;5053747;28;20079;-85
2021/04/30 08:55:14;;;;;;;5.00;3.42;;;31.60;24.60;;;;;;5050702;28;20175;-86
2021/04/30 08:57:42;;;;;;;5.05;3.30;;;31.50;24.60;;;;;;5035015;28;20561;-85
2021/04/30 09:00:09;;;;;;;4.57;3.83;;;30.70;24.80;;;;;;5031669;28;20052;-87
2021/04/30 09:02:39;;;;;;;4.60;3.50;;;29.90;24.70;;;;;;5010453;28;20045;-86
2021/04/30 09:05:08;;;;;;;4.32;3.40;;;29.60;25.20;;;;;;5013254;28;20018;-86
2021/04/30 09:07:38;;;;;;;;;;;29.20;24.70;;;;;;5026769;28;20043;-86
2021/04/30 09:10:07;;;;;;;5.13;3.55;;;28.70;25.60;;;;;;4938744;28;19927;-86
2021/04/30 09:12:33;;;;;;;6.68;3.53;;;28.30;25.50;;;;;;5023093;28;20026;-85
2021/04/30 09:14:59;;;;;;;5.53;3.90;;;27.70;25.90;;;;;;5015615;28;20083;-86
2021/04/30 09:17:29;;;;;;;3.65;3.30;;;;;;;;;;5019862;28;20032;-87
2021/04/30 09:19:59;;;;;;;4.60;3.13;;;;;;;;;;5017550;28;20050;-86
2021/04/30 09:22:32;;;;;;;4.20;3.53;;;;;;;;;;5023458;28;20575;-86
2021/04/30 09:24:59;;;;;;;6.10;3.67;;;;;;;;;;5021958;28;20021;-86
2021/04/30 09:27:47;;;;;;;5.22;3.42;;;27.10;27.00;;;;;;5020599;28;20025;-87
2021/04/30 09:30:29;;;;;;;5.60;4.20;;;27.10;27.10;;;;;;5020780;28;20063;-85
2021/04/30 09:33:10;;;;;;;5.30;3.17;;;27.60;27.40;;;;;;5022661;28;20514;-86
2021/04/30 09:35:55;;;;;;;5.88;3.97;;;;;;;;;;5020035;28;20029;-86
2021/04/30 09:38:22;;;;;;;4.80;3.53;;;27.70;25.80;;;;;;5019349;28;20022;-86
2021/04/30 09:40:49;;;;;;;6.43;2.90;;;27.70;26.40;;;;;;5021663;28;20029;-86
2021/04/30 09:43:16;;;;;;;4.63;3.72;;;27.70;26.20;;;;;;5016336;28;20025;-86
2021/04/30 09:45:45;;;;;;;6.28;3.90;;;27.70;25.80;;;;;;5023068;28;20106;-87
2021/04/30 09:48:12;;;;;;;5.40;3.38;;;27.50;25.70;;;;;;5024293;28;20112;-87
2021/04/30 09:50:40;;;;;;;5.80;3.70;;;27.40;26.30;;;;;;5019127;28;20029;-87
2021/04/30 09:53:11;;;;;;;4.73;3.23;;;;;;;;;;5023902;28;20031;-88
2021/04/30 09:55:51;;;;;;;4.25;3.28;;;;;;;;;;5014023;28;20036;-86
2021/04/30 09:58:21;;;;;;;5.82;3.35;;;;;;;;;;5022154;28;20079;-87
2021/04/30 10:00:48;;;;;;;3.70;3.28;;;;;;;;;;5023515;28;20028;-88
2021/04/30 10:03:23;;;;;;;3.95;3.17;;;;;;;;;;5025401;28;20507;-85
2021/04/30 10:06:02;;;;;;;3.63;3.25;;;;;;;;;;5018827;28;20041;-86
2021/04/30 10:08:28;;;;;;;3.97;3.17;;;;;;;;;;5026259;28;20017;-86
2021/04/30 10:10:54;;;;;;;4.20;3.45;;;;;;;;;;5021364;28;20118;-87
2021/04/30 10:13:20;;;;;;;6.47;3.97;;;;;;;;;;5031662;28;20413;-87
2021/04/30 10:15:46;;;;;;;6.85;3.95;;;;;;;;;;5029243;28;20112;-87
2021/04/30 10:18:16;;;;;;;4.72;3.65;;;;;;;;;;5021458;28;20060;-87
2021/04/30 10:20:42;;;;;;;5.75;3.45;;;;;;;;;;5018917;28;20046;-85
2021/04/30 10:23:14;;;;;;;4.60;3.80;;;;;;;;;;5021898;28;20044;-84
2021/04/30 10:25:45;;;;;;;6.32;3.83;;;27.20;25.90;;;;;;5027389;28;20021;-88
2021/04/30 10:28:13;;;;;;;4.68;3.08;;;25.20;27.00;;;;;;5026078;28;20022;-79
2021/04/30 10:31:04;;;;;;;8.32;3.75;;;24.60;27.00;;;;;;5022579;28;20040;-85
2021/04/30 10:33:47;;;;;;;5.68;4.43;;;24.10;28.90;;;;;;5020994;28;20061;-84
2021/04/30 10:36:29;;;;;;;4.05;3.58;;;23.60;28.60;;;;;;5052889;28;20068;-84
2021/04/30 10:38:55;;;;;;;4.78;3.90;;;23.30;29.90;;;;;;5016653;28;20041;-78
2021/04/30 10:41:37;;;;;;;4.90;4.05;;;23.00;29.10;;;;;;5017386;28;20109;-79
2021/04/30 10:44:15;;;;;;;5.43;3.90;;;22.80;29.50;;;;;;5012526;28;20037;-90
2021/04/30 10:46:42;;;;;;;4.65;4.20;;;22.60;29.70;;;;;;5003608;28;20014;-86
2021/04/30 10:49:08;;;;;;;5.57;4.35;;;22.50;30.60;;;;;;5032640;28;20037;-87
2021/04/30 10:51:36;;;;;;;6.00;4.30;;;22.50;30.50;;;;;;5027657;28;20026;-79
2021/04/30 10:54:28;;;;;;;4.90;3.55;;;22.40;30.90;;;;;;5014876;28;20045;-81
2021/04/30 10:57:16;;;;;;;6.00;4.10;;;22.30;31.40;;;;;;5006685;28;20045;-78
2021/04/30 10:59:50;;;;;;;6.78;3.90;;;22.00;29.90;;;;;;5024128;28;20029;-81
2021/04/30 11:02:21;;;;;;;4.28;3.85;;;21.90;30.10;;;;;;5002183;28;20096;-83
2021/04/30 11:05:12;;;;;;;5.93;4.22;;;22.00;30.50;;;;;;5010323;28;20066;-82
2021/04/30 11:07:49;;;;;;;8.27;4.65;;;21.80;30.40;;;;;;5015850;28;20093;-81
2021/04/30 11:10:21;;;;;;;6.60;4.55;;;21.80;32.20;;;;;;5016823;28;20061;-87
2021/04/30 11:13:15;;;;;;;5.30;3.95;;;21.70;31.40;;;;;;5013144;28;20037;-88
2021/04/30 11:15:44;;;;;;;5.35;4.20;;;21.40;31.30;;;;;;4996991;28;20045;-79
2021/04/30 11:18:11;;;;;;;4.25;3.58;;;21.30;31.50;;;;;;5026343;28;20041;-78
2021/04/30 11:20:40;;;;;;;4.15;3.42;;;21.10;31.00;;;;;;5022273;28;20050;-75
2021/04/30 11:23:25;;;;;;;5.15;3.38;;;21.00;31.50;;;;;;5018764;28;20022;-79
2021/04/30 11:25:57;;;;;;;5.68;3.80;;;21.10;31.20;;;;;;5016021;28;20106;-78
2021/04/30 11:28:34;;;;;;;4.82;3.42;;;21.00;32.70;;;;;;5016377;28;20064;-81
2021/04/30 11:31:05;;;;;;;4.20;3.80;;;20.90;31.30;;;;;;5011853;28;20031;-86
2021/04/30 11:33:33;;;;;;;4.65;4.00;;;20.80;31.70;;;;;;4997095;28;20033;-84
2021/04/30 11:36:00;;;;;;;5.10;3.80;;;20.90;31.40;;;;;;5018157;28;20037;-85
2021/04/30 11:38:43;;;;;;;6.18;3.45;;;20.70;32.10;;;;;;5020058;28;20022;-85
2021/04/30 11:41:11;;;;;;;4.00;3.03;;;20.80;31.90;;;;;;5050846;28;20073;-87
2021/04/30 11:43:40;;;;;;;4.43;3.63;;;20.70;31.10;;;;;;5019108;28;20022;-87
2021/04/30 11:46:07;;;;;;;3.30;2.80;;;20.70;30.70;;;;;;5020996;28;20052;-87
2021/04/30 11:48:33;;;;;;;3.45;3.13;;;20.70;30.80;;;;;;5018455;28;20036;-87
2021/04/30 11:51:11;;;;;;;4.20;3.20;;;20.70;31.30;;;;;;5019539;28;20026;-86
2021/04/30 11:53:40;;;;;;;4.28;3.33;;;20.70;30.20;;;;;;5015545;28;20144;-85
2021/04/30 11:56:07;;;;;;;4.70;3.38;;;20.70;30.90;;;;;;5014758;28;20520;-85
2021/04/30 11:58:41;;;;;;;7.10;3.38;;;20.70;31.20;;;;;;5021803;28;20032;-86
2021/04/30 12:01:09;;;;;;;3.90;3.20;;;20.70;32.20;;;;;;5020685;28;20064;-86
2021/04/30 12:04:01;;;;;;;4.93;3.30;;;20.60;31.40;;;;;;5018571;28;20049;-86
2021/04/30 12:06:27;;;;;;;4.30;3.00;;;20.60;30.40;;;;;;5024741;28;20041;-86
2021/04/30 12:08:56;;;;;;;3.20;2.85;;;20.50;32.10;;;;;;5001760;28;20404;-86
2021/04/30 12:11:26;;;;;;;5.13;3.10;;;20.40;30.10;;;;;;5015246;28;20030;-87
2021/04/30 12:13:53;;;;;;;5.13;3.00;;;20.50;31.70;;;;;;5018298;28;20029;-86
2021/04/30 12:16:20;;;;;;;3.97;2.70;;;20.50;30.60;;;;;;5022334;28;20032;-85
2021/04/30 12:18:47;;;;;;;3.40;2.75;;;20.40;31.20;;;;;;5016286;28;20156;-85
2021/04/30 12:21:24;;;;;;;4.38;2.60;;;20.40;30.40;;;;;;5021510;28;20038;-84
2021/04/30 12:23:51;;;;;;;5.07;2.75;;;20.50;30.20;;;;;;5009238;28;20037;-85
2021/04/30 12:26:27;;;;;;;5.00;2.50;;;20.50;30.00;;;;;;5022532;28;20018;-85
2021/04/30 12:28:56;;;;;;;3.50;3.00;;;20.50;31.20;;;;;;5015259;28;20022;-86
2021/04/30 12:31:25;;;;;;;4.97;2.45;;;20.60;29.10;;;;;;5011738;28;20071;-85
2021/04/30 12:33:53;;;;;;;4.07;2.53;;;20.60;30.40;;;;;;5016123;28;20045;-86
2021/04/30 12:36:24;;;;;;;3.95;2.67;;;20.70;29.50;;;;;;5016960;28;20038;-85
2021/04/30 12:38:54;;;;;;;3.20;2.28;;;20.80;29.60;;;;;;5021868;28;20021;-85
2021/04/30 12:41:28;;;;;;;4.80;2.65;;;20.80;29.30;;;;;;5009493;28;20026;-85
2021/04/30 12:43:55;;;;;;;4.15;3.28;;;20.70;30.00;;;;;;5017043;28;20607;-87
2021/04/30 12:46:31;;;;;;;4.20;3.10;;;20.80;30.30;;;;;;5018187;28;20044;-85
2021/04/30 12:49:04;;;;;;;3.38;2.90;;;20.70;29.30;;;;;;5019229;28;20022;-85
2021/04/30 12:51:32;;;;;;;4.40;2.40;;;20.70;29.60;;;;;;5020726;28;20036;-85
2021/04/30 12:53:58;;;;;;;4.55;2.30;;;20.80;30.30;;;;;;5009158;28;20030;-85
2021/04/30 12:56:35;;;;;;;3.20;2.30;;;20.90;29.90;;;;;;5024270;28;20411;-86
2021/04/30 12:59:12;;;;;;;2.65;2.17;;;20.80;30.00;;;;;;5025102;28;20032;-84
2021/04/30 13:01:44;;;;;;;3.65;2.35;;;20.70;28.30;;;;;;5022257;28;20105;-84
2021/04/30 13:04:18;;;;;;;2.60;2.28;;;20.70;28.70;;;;;;5019483;28;20034;-83
2021/04/30 13:06:45;;;;;;;4.03;1.98;;;20.80;29.30;;;;;;5019833;28;20040;-84
2021/04/30 13:09:15;;;;;;;2.10;1.88;;;20.90;29.80;;;;;;5019736;28;20022;-85
2021/04/30 13:11:57;;;;;;;3.17;2.30;;;20.90;29.50;;;;;;5021374;28;20033;-84
2021/04/30 13:14:22;;;;;;;3.58;2.40;;;20.80;29.90;;;;;;5023628;28;20065;-85
2021/04/30 13:16:49;;;;;;;4.00;2.90;;;20.90;30.00;;;;;;5023035;28;20033;-84
2021/04/30 13:19:15;;;;;;;3.65;2.63;;;21.00;29.90;;;;;;5023745;28;20049;-84
2021/04/30 13:21:47;;;;;;;2.92;2.53;;;21.00;30.00;;;;;;5017396;28;20025;-84
2021/04/30 13:24:22;;;;;;;4.18;2.60;;;21.20;29.50;;;;;;5023036;28;20025;-84
2021/04/30 13:27:05;;;;;;;4.70;2.50;;;21.30;30.00;;;;;;5014202;28;20034;-83
2021/04/30 13:29:33;;;;;;;4.28;3.15;;;21.30;29.60;;;;;;5021315;28;20089;-83
2021/04/30 13:32:17;;;;;;;6.45;2.95;;;21.30;30.20;;;;;;5013247;28;20037;-83
2021/04/30 13:35:15;;;;;;;3.53;2.70;;;21.20;30.00;;;;;;5020843;28;20029;-84
2021/04/30 13:37:44;;;;;;;3.10;2.13;;;21.20;29.50;;;;;;5007210;28;20041;-85
2021/04/30 13:40:16;;;;;;;4.78;2.70;;;21.40;29.70;;;;;;5018593;28;20030;-84
2021/04/30 13:42:45;;;;;;;4.22;3.08;;;21.40;30.30;;;;;;5025106;28;20021;-84
2021/04/30 13:45:20;;;;;;;3.28;2.53;;;21.40;30.20;;;;;;5025774;28;20043;-85
2021/04/30 13:47:51;;;;;;;3.63;2.35;;;21.40;29.80;;;;;;5018233;28;20057;-80
2021/04/30 13:50:29;;;;;;;3.38;2.40;;;21.40;29.90;;;;;;5018663;28;20029;-83
2021/04/30 13:52:56;;;;;;;3.08;2.58;;;21.30;29.50;;;;;;5007295;28;20567;-84
2021/04/30 13:55:22;;;;;;;3.25;2.35;;;21.10;29.40;;;;;;5017820;28;20133;-84
2021/04/30 13:57:48;;;;;;;3.00;2.53;;;20.90;29.30;;;;;;5003953;28;20160;-83
2021/04/30 14:00:16;;;;;;;5.22;2.33;;;20.80;28.90;;;;;;5030217;28;20446;-83
2021/04/30 14:02:46;;;;;;;2.85;2.33;;;20.60;29.10;;;;;;5018106;28;20037;-83
2021/04/30 14:05:15;;;;;;;3.42;2.30;;;20.60;29.60;;;;;;5031787;28;20021;-83
2021/04/30 14:07:41;;;;;;;3.55;2.30;;;20.50;30.10;;;;;;5035686;28;20036;-85
2021/04/30 14:10:09;;;;;;;3.47;2.30;;;20.40;30.10;;;;;;4999248;28;20037;-84
2021/04/30 14:12:35;;;;;;;2.95;2.17;;;20.40;30.40;;;;;;5016650;28;20030;-84
2021/04/30 14:15:00;;;;;;;3.53;2.45;;;20.30;30.20;;;;;;5024444;28;20252;-87
2021/04/30 14:17:26;;;;;;;3.97;2.80;;;20.10;30.50;;;;;;5024417;28;20026;-85
2021/04/30 14:19:52;;;;;;;3.97;2.90;;;20.10;31.60;;;;;;5025360;28;20112;-83
2021/04/30 14:22:17;;;;;;;3.22;2.60;;;20.10;31.40;;;;;;5018431;28;20583;-84
2021/04/30 14:24:43;;;;;;;3.70;2.30;;;20.10;31.40;;;;;;5023977;28;20042;-85
2021/04/30 14:27:10;;;;;;;4.78;3.00;;;20.10;31.70;;;;;;5020515;28;20420;-84
2021/04/30 14:29:37;;;;;;;4.63;3.05;;;20.00;31.70;;;;;;5023714;28;20037;-84
2021/04/30 14:32:04;;;;;;;3.90;2.78;;;20.00;32.20;;;;;;5017493;28;20053;-84
2021/04/30 14:34:30;;;;;;;3.60;2.92;;;20.00;32.40;;;;;;5020596;28;20065;-85
2021/04/30 14:36:56;;;;;;;3.90;3.35;;;20.00;31.60;;;;;;5022906;28;20462;-85
2021/04/30 14:39:21;;;;;;;6.22;2.90;;;20.00;32.20;;;;;;5016886;28;20034;-84
2021/04/30 14:41:48;;;;;;;3.92;2.20;;;19.90;32.40;;;;;;5026550;28;20124;-86
2021/04/30 14:44:13;;;;;;;4.45;3.38;;;19.80;33.00;;;;;;5023388;28;20079;-84
2021/04/30 14:46:39;;;;;;;5.97;3.35;;;19.80;33.00;;;;;;5022020;28;20030;-85
2021/04/30 14:49:05;;;;;;;6.18;3.88;;;19.70;34.20;;;;;;5018116;28;20100;-86
2021/04/30 14:51:31;;;;;;;4.68;3.25;;;19.70;35.00;;;;;;5018625;28;20073;-85
2021/04/30 14:53:56;;;;;;;4.78;3.72;;;19.70;35.20;;;;;;5013942;28;20034;-85
2021/04/30 14:56:23;;;;;;;4.25;3.67;;;19.70;35.20;;;;;;5008575;28;20106;-85
2021/04/30 14:58:50;;;;;;;6.38;3.90;;;19.50;35.00;;;;;;5012791;28;20068;-85
2021/04/30 15:01:16;;;;;;;5.03;3.50;;;19.50;35.50;;;;;;5019025;28;20030;-85
2021/04/30 15:03:41;;;;;;;7.25;3.42;;;19.40;35.60;;;;;;5019754;28;20032;-85
2021/04/30 15:06:07;;;;;;;5.47;4.00;;;19.30;35.80;;;;;;5032797;28;20036;-84
2021/04/30 15:08:35;;;;;;;4.45;3.00;;;19.10;36.10;;;;;;5016670;28;20022;-85
2021/04/30 15:11:01;;;;;;;6.07;3.67;;;19.10;36.40;;;;;;4997852;28;20424;-81
2021/04/30 15:13:26;;;;;;;7.15;3.50;;;19.30;35.80;;;;;;5012621;28;20460;-85
2021/04/30 15:15:52;;;;;;;7.45;3.63;;;19.50;35.90;;;;;;5031070;28;20095;-84
2021/04/30 15:18:19;;;;;;;6.40;3.50;;;19.70;35.50;;;;;;5007767;28;20035;-85
2021/04/30 15:20:45;;;;;;;5.50;3.38;;;19.80;35.00;;;;;;5011075;28;20047;-85
2021/04/30 15:23:11;;;;;;;5.28;3.47;;;19.80;34.80;;;;;;5022795;28;20022;-85
2021/04/30 15:25:36;;;;;;;6.60;3.42;;;19.80;34.50;;;;;;5024685;28;20088;-85
2021/04/30 15:28:04;;;;;;;5.28;3.20;;;19.80;35.40;;;;;;5020224;28;20029;-82
2021/04/30 15:30:33;;;;;;;4.78;3.13;;;19.60;34.40;;;;;;5014543;28;20029;-86
2021/04/30 15:32:59;;;;;;;4.72;3.05;;;19.60;35.10;;;;;;5017635;28;20704;-86
2021/04/30 15:35:25;;;;;;;4.47;3.17;;;19.50;35.50;;;;;;5023851;28;20112;-85
2021/04/30 15:37:50;;;;;;;4.45;3.65;;;19.70;36.00;;;;;;5014284;28;20116;-89
2021/04/30 15:40:19;;;;;;;4.90;3.35;;;19.70;35.50;;;;;;5012335;28;20034;-88
2021/04/30 15:42:45;;;;;;;3.30;2.72;;;19.70;35.60;;;;;;5023805;28;20053;-87
2021/04/30 15:45:12;;;;;;;5.82;3.10;;;19.70;34.90;;;;;;5015351;28;20026;-89
2021/04/30 15:47:38;;;;;;;4.70;3.28;;;19.60;34.90;;;;;;5025588;28;20501;-90
2021/04/30 15:50:07;;;;;;;5.75;3.45;;;19.60;35.40;;;;;;5026432;28;20496;-87
2021/04/30 15:52:32;;;;;;;4.70;3.28;;;19.50;35.10;;;;;;5011759;28;20024;-88
2021/04/30 15:54:58;;;;;;;4.68;3.42;;;19.40;35.50;;;;;;5026609;28;20138;-87
2021/04/30 15:57:24;;;;;;;5.93;3.20;;;19.50;35.40;;;;;;5019799;28;20034;-87
2021/04/30 15:59:50;;;;;;;6.03;3.83;;;19.40;35.30;;;;;;5030866;28;20041;-88
2021/04/30 16:02:16;;;;;;;6.75;3.70;;;19.50;35.80;;;;;;5028526;28;20123;-89
2021/04/30 16:04:42;;;;;;;8.75;3.47;;;19.30;34.80;;;;;;5019430;28;20037;-89
2021/04/30 16:07:08;;;;;;;4.03;3.40;;;19.10;35.80;;;;;;5018694;28;20018;-88
2021/04/30 16:09:36;;;;;;;4.82;3.40;;;19.20;35.50;;;;;;5025576;28;20055;-88
2021/04/30 16:12:02;;;;;;;5.10;3.28;;;19.20;36.00;;;;;;5016653;28;20092;-88
2021/04/30 16:14:28;;;;;;;5.22;3.47;;;19.20;36.60;;;;;;5017051;28;20054;-88
2021/04/30 16:16:54;;;;;;;4.00;3.28;;;19.30;36.50;;;;;;5017533;28;20037;-89
2021/04/30 16:19:19;;;;;;;8.13;3.60;;;19.20;35.70;;;;;;5017701;28;20421;-88
2021/04/30 16:21:45;;;;;;;5.43;3.50;;;18.90;36.10;;;;;;5036635;28;20040;-89
2021/04/30 16:24:11;;;;;;;6.22;3.75;;;18.80;36.10;;;;;;5018865;28;20037;-87
2021/04/30 16:26:37;;;;;;;6.78;3.33;;;18.80;36.20;;;;;;5017147;28;20393;-88
2021/04/30 16:29:03;;;;;;;6.22;3.60;;;18.70;36.60;;;;;;5017045;28;20041;-88
2021/04/30 16:31:29;;;;;;;5.65;3.45;;;18.60;36.60;;;;;;5017078;28;20010;-88
2021/04/30 16:33:56;;;;;;;6.35;3.70;;;18.50;37.40;;;;;;4998073;28;20079;-89
2021/04/30 16:36:22;;;;;;;4.03;3.50;;;18.50;36.70;;;;;;4997807;28;20015;-90
2021/04/30 16:38:47;;;;;;;6.63;3.55;;;18.30;37.30;;;;;;5002713;28;20026;-91
2021/04/30 16:41:13;;;;;;;6.03;3.55;;;18.40;37.40;;;;;;5029460;28;20034;-90
2021/04/30 16:43:39;;;;;;;5.40;4.05;;;18.30;36.80;;;;;;5017165;28;20042;-91
2021/04/30 16:46:18;;;;;;;5.35;4.07;;;18.30;37.50;;;;;;5018039;28;20022;-91
2021/04/30 16:48:46;;;;;;;7.75;4.40;;;18.30;37.60;;;;;;5020327;28;20087;-89
2021/04/30 16:51:12;;;;;;;4.78;3.42;;;18.20;37.70;;;;;;5041387;28;20030;-90
2021/04/30 16:53:38;;;;;;;4.82;3.40;;;18.00;37.80;;;;;;5027653;28;20030;-83
2021/04/30 16:56:04;;;;;;;4.57;3.33;;;17.90;38.00;;;;;;5017305;28;20031;-85
2021/04/30 16:58:30;;;;;;;6.18;3.40;;;17.90;37.70;;;;;;5021113;28;21956;-88
2021/04/30 17:00:56;;;;;;;4.07;2.95;;;17.90;37.40;;;;;;5010899;28;20153;-83
2021/04/30 17:03:22;;;;;;;4.85;2.70;;;17.90;36.80;;;;;;4998844;28;20129;-82
2021/04/30 17:05:48;;;;;;;4.45;3.47;;;17.80;36.40;;;;;;4964382;28;20069;-82
2021/04/30 17:08:14;;;;;;;4.53;3.20;;;17.80;36.90;;;;;;5023791;28;20028;-83
2021/04/30 17:10:40;;;;;;;5.45;3.47;;;17.70;37.50;;;;;;5013589;28;20493;-80
2021/04/30 17:13:06;;;;;;;5.13;4.07;;;17.70;37.90;;;;;;4999491;28;20066;-79
2021/04/30 17:15:31;;;;;;;4.75;3.42;;;17.60;38.40;;;;;;4990378;28;20049;-84
2021/04/30 17:17:57;;;;;;;6.65;3.90;;;17.60;39.40;;;;;;4995798;28;20046;-85
2021/04/30 17:20:24;;;;;;;5.28;3.65;;;17.30;39.50;;;;;;5011733;28;20045;-83
2021/04/30 17:22:50;;;;;;;5.20;3.63;;;17.20;39.90;;;;;;5016921;28;20052;-83
2021/04/30 17:25:15;;;;;;;6.03;4.05;;;17.20;40.10;;;;;;5007271;28;20711;-87
2021/04/30 17:27:41;;;;;;;9.23;4.40;;;17.10;39.50;;;;;;5010103;28;20051;-87
2021/04/30 17:30:07;;;;;;;5.40;4.05;;;17.10;39.80;;;;;;5011424;28;20046;-84
2021/04/30 17:32:34;;;;;;;6.38;4.20;;;17.10;40.30;;;;;;5023810;28;20075;-86
2021/04/30 17:35:04;;;;;;;5.28;4.00;;;17.10;40.40;;;;;;5019609;28;20515;-83
2021/04/30 17:37:29;;;;;;;6.93;4.00;;;17.10;40.50;;;;;;5013550;28;20061;-83
2021/04/30 17:39:56;;;;;;;5.32;4.40;;;17.00;40.80;;;;;;4999888;28;20018;-84
2021/04/30 17:42:23;;;;;;;5.68;4.50;;;16.90;41.00;;;;;;5014250;28;20522;-81
2021/04/30 17:44:49;;;;;;;8.85;4.85;;;16.90;40.90;;;;;;5026144;28;20036;-81
2021/04/30 17:47:14;;;;;;;7.10;4.63;;;16.70;41.40;;;;;;5015824;28;20023;-81
2021/04/30 17:49:40;;;;;;;6.45;4.70;;;16.70;41.60;;;;;;5014626;28;20144;-82
2021/04/30 17:52:06;;;;;;;4.88;3.92;;;16.40;42.10;;;;;;5009341;28;20172;-83
2021/04/30 17:54:31;;;;;;;4.95;3.97;;;16.30;42.10;;;;;;5007875;28;20024;-82
2021/04/30 17:56:57;;;;;;;5.57;3.67;;;16.30;42.40;;;;;;5013550;28;20030;-81
2021/04/30 17:59:22;;;;;;;5.93;4.00;;;16.30;42.10;;;;;;5007800;28;20021;-82
2021/04/30 18:01:48;;;;;;;7.13;4.03;;;16.30;42.20;;;;;;5013891;28;20029;-82
2021/04/30 18:04:14;;;;;;;5.30;4.20;;;16.10;42.60;;;;;;5013025;28;20100;-80
2021/04/30 18:06:39;;;;;;;6.65;3.95;;;16.10;42.60;;;;;;5007807;28;20612;-78
2021/04/30 18:09:05;;;;;;;5.68;4.40;;;16.10;42.70;;;;;;5012935;28;20114;-80
2021/04/30 18:11:31;;;;;;;6.97;4.53;;;16.10;42.90;;;;;;5005266;28;20098;-83
2021/04/30 18:13:57;;;;;;;5.05;4.00;;;16.00;43.20;;;;;;5011595;28;20396;-82
2021/04/30 18:16:23;;;;;;;7.05;4.10;;;16.00;43.60;;;;;;5006238;28;20026;-82
2021/04/30 18:18:49;;;;;;;4.78;3.92;;;16.00;43.20;;;;;;5013407;28;20044;-84